createdAt,value
2023-06-07T00:00:29.050Z,128.15
2023-06-07T00:01:29.108Z,127.77
2023-06-07T00:02:42.174Z,127.59
2023-06-07T00:03:30.289Z,127.64
2023-06-07T00:04:29.278Z,127.81
2023-06-07T00:05:29.126Z,128.29
2023-06-07T00:06:29.139Z,129.10
2023-06-07T00:07:29.110Z,130.95
2023-06-07T00:08:29.121Z,130.58
2023-06-07T00:09:29.248Z,130.48
2023-06-07T00:10:29.112Z,131.05
2023-06-07T00:11:29.104Z,130.86
2023-06-07T00:12:29.111Z,131.90
2023-06-07T00:13:29.159Z,133.79
2023-06-07T00:14:29.212Z,133.04
2023-06-07T00:15:29.243Z,132.60
2023-06-07T00:16:29.284Z,134.34
2023-06-07T00:17:29.489Z,135.51
2023-06-07T00:18:29.585Z,135.13
2023-06-07T00:19:29.431Z,136.62
2023-06-07T00:20:29.470Z,138.96
2023-06-07T00:21:29.473Z,138.09
2023-06-07T00:22:29.497Z,137.30
2023-06-07T00:23:29.629Z,139.19
2023-06-07T00:24:29.597Z,141.13
2023-06-07T00:25:29.610Z,139.40
2023-06-07T00:26:29.631Z,137.70
2023-06-07T00:27:29.651Z,137.89
2023-06-07T00:28:29.941Z,138.51
2023-06-07T00:29:29.685Z,140.03
2023-06-07T00:30:29.713Z,140.91
2023-06-07T00:31:29.853Z,142.98
2023-06-07T00:32:29.869Z,143.17
2023-06-07T00:33:29.842Z,143.48
2023-06-07T00:34:29.878Z,144.16
2023-06-07T00:35:29.911Z,144.19
2023-06-07T00:36:29.951Z,145.34
2023-06-07T00:37:29.968Z,146.27
2023-06-07T00:38:29.989Z,144.80
2023-06-07T00:39:30.005Z,145.79
2023-06-07T00:40:30.029Z,146.90
2023-06-07T00:41:30.047Z,148.61
2023-06-07T00:42:30.063Z,149.08
2023-06-07T00:43:30.088Z,150.09
2023-06-07T00:44:30.108Z,151.81
2023-06-07T00:45:30.129Z,153.17
2023-06-07T00:46:30.166Z,152.13
2023-06-07T00:47:30.202Z,153.53
2023-06-07T00:48:30.257Z,156.68
2023-06-07T00:49:30.160Z,157.72
2023-06-07T00:50:30.169Z,159.59
2023-06-07T00:51:30.189Z,158.78
2023-06-07T00:52:30.201Z,161.15
2023-06-07T00:53:30.248Z,161.04
2023-06-07T00:54:30.271Z,162.24
2023-06-07T00:55:30.281Z,161.63
2023-06-07T00:56:30.288Z,162.73
2023-06-07T00:57:30.316Z,163.10
2023-06-07T00:58:30.338Z,162.91
2023-06-07T00:59:30.358Z,162.41
2023-06-07T01:00:30.351Z,162.58
2023-06-07T01:01:30.520Z,164.17
2023-06-07T01:02:30.473Z,164.30
2023-06-07T01:03:30.499Z,163.77
2023-06-07T01:04:30.432Z,163.55
2023-06-07T01:05:30.434Z,163.68
2023-06-07T01:06:30.474Z,163.64
2023-06-07T01:07:30.467Z,164.55
2023-06-07T01:08:30.488Z,163.76
2023-06-07T01:09:30.520Z,164.23
2023-06-07T01:10:30.509Z,164.44
2023-06-07T01:11:30.499Z,163.89
2023-06-07T01:12:30.524Z,164.83
2023-06-07T01:13:30.517Z,163.02
2023-06-07T01:14:30.523Z,163.23
2023-06-07T01:15:30.544Z,163.57
2023-06-07T01:16:30.591Z,163.65
2023-06-07T01:17:30.602Z,161.57
2023-06-07T01:18:30.599Z,161.59
2023-06-07T01:19:30.625Z,162.15
2023-06-07T01:20:30.632Z,162.02
2023-06-07T01:21:30.636Z,161.38
2023-06-07T01:22:30.649Z,161.43
2023-06-07T01:23:30.637Z,160.88
2023-06-07T01:24:30.645Z,162.20
2023-06-07T01:25:30.637Z,161.39
2023-06-07T01:26:30.642Z,163.25
2023-06-07T01:27:30.644Z,162.65
2023-06-07T01:28:30.626Z,164.25
2023-06-07T01:29:30.638Z,164.56
2023-06-07T01:30:30.691Z,163.09
2023-06-07T01:31:30.647Z,163.45
2023-06-07T01:32:30.658Z,164.21
2023-06-07T01:33:30.639Z,165.03
2023-06-07T01:34:30.633Z,165.70
2023-06-07T01:35:30.651Z,166.03
2023-06-07T01:36:30.642Z,164.54
2023-06-07T01:37:30.653Z,164.37
2023-06-07T01:38:30.663Z,165.37
2023-06-07T01:39:30.645Z,163.54
2023-06-07T01:40:30.657Z,162.39
2023-06-07T01:41:30.660Z,164.38
2023-06-07T01:42:30.675Z,164.56
2023-06-07T01:43:30.679Z,163.43
2023-06-07T01:44:30.663Z,163.68
2023-06-07T01:45:30.723Z,163.62
2023-06-07T01:46:30.722Z,163.17
2023-06-07T01:47:30.697Z,164.18
2023-06-07T01:48:30.692Z,163.82
2023-06-07T01:49:30.692Z,163.72
2023-06-07T01:50:30.679Z,162.34
2023-06-07T01:51:30.693Z,163.01
2023-06-07T01:52:30.671Z,163.57
2023-06-07T01:53:30.692Z,164.48
2023-06-07T01:54:30.703Z,165.14
2023-06-07T01:55:30.692Z,165.74
2023-06-07T01:56:30.703Z,166.38
2023-06-07T01:57:30.728Z,164.57
2023-06-07T01:58:30.672Z,165.30
2023-06-07T01:59:30.687Z,165.98
2023-06-07T02:00:30.684Z,164.65
2023-06-07T02:01:30.715Z,164.50
2023-06-07T02:02:30.750Z,165.36
2023-06-07T02:03:30.688Z,164.61
2023-06-07T02:04:30.687Z,164.44
2023-06-07T02:05:30.705Z,164.30
2023-06-07T02:06:30.681Z,164.81
2023-06-07T02:07:30.681Z,164.45
2023-06-07T02:08:30.694Z,164.64
2023-06-07T02:09:30.677Z,165.05
2023-06-07T02:10:30.672Z,165.28
2023-06-07T02:11:30.668Z,165.18
2023-06-07T02:12:30.670Z,166.04
2023-06-07T02:13:30.695Z,166.24
2023-06-07T02:14:30.676Z,165.82
2023-06-07T02:15:30.699Z,165.62
2023-06-07T02:16:30.682Z,165.44
2023-06-07T02:17:30.858Z,165.08
2023-06-07T02:18:30.700Z,163.79
2023-06-07T02:19:30.691Z,165.04
2023-06-07T02:20:30.716Z,164.94
2023-06-07T02:21:30.704Z,164.13
2023-06-07T02:22:30.729Z,165.81
2023-06-07T02:23:30.713Z,167.32
2023-06-07T02:24:30.703Z,166.89
2023-06-07T02:25:30.693Z,165.74
2023-06-07T02:26:30.720Z,167.45
2023-06-07T02:27:30.696Z,167.28
2023-06-07T02:28:30.722Z,167.44
2023-06-07T02:29:30.700Z,167.15
2023-06-07T02:30:30.719Z,168.87
2023-06-07T02:31:30.744Z,170.53
2023-06-07T02:32:30.723Z,169.62
2023-06-07T02:33:30.721Z,169.74
2023-06-07T02:34:30.722Z,170.03
2023-06-07T02:35:30.778Z,171.38
2023-06-07T02:36:30.734Z,171.54
2023-06-07T02:37:30.735Z,172.29
2023-06-07T02:38:30.762Z,173.31
2023-06-07T02:39:30.753Z,173.24
2023-06-07T02:40:30.785Z,173.04
2023-06-07T02:41:30.777Z,172.44
2023-06-07T02:42:30.770Z,173.98
2023-06-07T02:43:30.786Z,174.06
2023-06-07T02:44:30.777Z,173.73
2023-06-07T02:45:30.787Z,173.98
2023-06-07T02:46:30.808Z,174.68
2023-06-07T02:47:30.806Z,174.41
2023-06-07T02:48:30.824Z,172.80
2023-06-07T02:49:30.823Z,173.20
2023-06-07T02:50:30.854Z,173.59
2023-06-07T02:51:30.859Z,172.44
2023-06-07T02:52:30.848Z,172.42
2023-06-07T02:53:30.841Z,172.55
2023-06-07T02:54:30.871Z,171.41
2023-06-07T02:55:30.882Z,172.83
2023-06-07T02:56:30.887Z,172.53
2023-06-07T02:57:30.914Z,174.25
2023-06-07T02:58:30.896Z,173.72
2023-06-07T02:59:30.908Z,174.11
2023-06-07T03:00:30.920Z,176.82
2023-06-07T03:01:30.974Z,177.39
2023-06-07T03:02:31.068Z,179.01
2023-06-07T03:03:31.073Z,180.58
2023-06-07T03:04:30.966Z,181.91
2023-06-07T03:05:30.970Z,181.68
2023-06-07T03:06:31.001Z,185.29
2023-06-07T03:07:30.990Z,183.92
2023-06-07T03:08:31.006Z,186.19
2023-06-07T03:09:31.008Z,185.65
2023-06-07T03:10:31.033Z,188.02
2023-06-07T03:11:31.016Z,187.27
2023-06-07T03:12:31.035Z,187.67
2023-06-07T03:13:31.059Z,188.78
2023-06-07T03:14:31.070Z,188.07
2023-06-07T03:15:31.060Z,189.07
2023-06-07T03:16:31.178Z,190.96
2023-06-07T03:17:31.117Z,191.29
2023-06-07T03:18:31.074Z,192.44
2023-06-07T03:19:31.123Z,191.89
2023-06-07T03:20:31.152Z,192.10
2023-06-07T03:21:31.117Z,192.87
2023-06-07T03:22:31.135Z,191.75
2023-06-07T03:23:31.214Z,191.63
2023-06-07T03:24:31.148Z,192.78
2023-06-07T03:25:31.277Z,193.40
2023-06-07T03:26:31.184Z,193.26
2023-06-07T03:27:31.201Z,192.12
2023-06-07T03:28:31.194Z,190.70
2023-06-07T03:29:31.220Z,190.98
2023-06-07T03:30:31.240Z,191.94
2023-06-07T03:31:31.272Z,192.84
2023-06-07T03:32:31.258Z,191.95
2023-06-07T03:33:31.255Z,190.88
2023-06-07T03:34:31.255Z,191.05
2023-06-07T03:35:31.282Z,191.68
2023-06-07T03:36:31.303Z,190.99
2023-06-07T03:37:31.312Z,191.30
2023-06-07T03:38:31.320Z,190.71
2023-06-07T03:39:31.314Z,190.19
2023-06-07T03:40:31.348Z,189.42
2023-06-07T03:41:31.358Z,188.56
2023-06-07T03:42:31.368Z,188.88
2023-06-07T03:43:31.362Z,188.00
2023-06-07T03:44:31.404Z,185.36
2023-06-07T03:45:31.414Z,184.30
2023-06-07T03:46:31.429Z,184.73
2023-06-07T03:47:31.465Z,185.19
2023-06-07T03:48:31.553Z,186.93
2023-06-07T03:49:31.445Z,185.58
2023-06-07T03:50:31.467Z,185.44
2023-06-07T03:51:31.455Z,184.41
2023-06-07T03:52:31.463Z,182.64
2023-06-07T03:53:31.502Z,182.49
2023-06-07T03:54:31.484Z,182.78
2023-06-07T03:55:31.524Z,182.87
2023-06-07T03:56:31.520Z,181.45
2023-06-07T03:57:31.551Z,180.51
2023-06-07T03:58:31.532Z,177.98
2023-06-07T03:59:31.577Z,178.75
2023-06-07T04:00:31.567Z,178.57
2023-06-07T04:01:31.597Z,180.37
2023-06-07T04:02:31.653Z,178.72
2023-06-07T04:03:31.672Z,179.49
2023-06-07T04:04:31.692Z,178.52
2023-06-07T04:05:31.636Z,179.04
2023-06-07T04:06:31.667Z,180.51
2023-06-07T04:07:31.644Z,179.52
2023-06-07T04:08:31.651Z,179.59
2023-06-07T04:09:31.685Z,178.99
2023-06-07T04:10:31.690Z,179.24
2023-06-07T04:11:31.701Z,179.24
2023-06-07T04:12:31.713Z,179.67
2023-06-07T04:13:31.723Z,179.74
2023-06-07T04:14:31.735Z,179.84
2023-06-07T04:15:31.737Z,177.68
2023-06-07T04:16:31.788Z,178.80
2023-06-07T04:17:31.862Z,180.34
2023-06-07T04:18:31.791Z,179.63
2023-06-07T04:19:31.784Z,179.69
2023-06-07T04:20:31.802Z,177.75
2023-06-07T04:21:31.813Z,178.88
2023-06-07T04:22:31.856Z,178.45
2023-06-07T04:23:31.859Z,177.42
2023-06-07T04:24:31.842Z,178.97
2023-06-07T04:25:31.831Z,179.86
2023-06-07T04:26:31.848Z,178.38
2023-06-07T04:27:31.870Z,177.96
2023-06-07T04:28:31.919Z,178.19
2023-06-07T04:29:31.882Z,177.86
2023-06-07T04:30:31.900Z,178.54
2023-06-07T04:31:31.943Z,178.10
2023-06-07T04:32:31.927Z,178.22
2023-06-07T04:33:31.890Z,179.18
2023-06-07T04:34:31.906Z,177.88
2023-06-07T04:35:31.949Z,177.22
2023-06-07T04:36:31.920Z,177.05
2023-06-07T04:37:32.922Z,177.07
2023-06-07T04:38:33.354Z,178.63
2023-06-07T04:39:31.938Z,178.75
2023-06-07T04:40:31.945Z,177.86
2023-06-07T04:41:32.046Z,179.70
2023-06-07T04:42:31.940Z,179.74
2023-06-07T04:43:31.943Z,179.94
2023-06-07T04:44:31.963Z,180.84
2023-06-07T04:45:32.002Z,180.90
2023-06-07T04:46:32.181Z,180.21
2023-06-07T04:47:32.014Z,180.22
2023-06-07T04:48:31.982Z,184.70
2023-06-07T04:49:31.986Z,186.96
2023-06-07T04:50:31.982Z,190.89
2023-06-07T04:51:32.009Z,193.35
2023-06-07T04:52:31.997Z,194.05
2023-06-07T04:53:31.978Z,194.51
2023-06-07T04:54:31.980Z,196.39
2023-06-07T04:55:31.982Z,198.18
2023-06-07T04:56:31.982Z,198.25
2023-06-07T04:57:31.996Z,199.30
2023-06-07T04:58:31.971Z,201.11
2023-06-07T04:59:31.993Z,201.46
2023-06-07T05:00:32.003Z,200.40
2023-06-07T05:01:32.006Z,200.50
2023-06-07T05:02:32.024Z,200.65
2023-06-07T05:03:32.006Z,202.19
2023-06-07T05:04:32.035Z,202.75
2023-06-07T05:05:32.067Z,203.42
2023-06-07T05:06:32.049Z,203.55
2023-06-07T05:07:32.043Z,205.26
2023-06-07T05:08:32.081Z,203.17
2023-06-07T05:09:32.165Z,204.76
2023-06-07T05:10:32.125Z,204.97
2023-06-07T05:11:32.138Z,204.70
2023-06-07T05:12:32.143Z,205.61
2023-06-07T05:13:32.198Z,206.16
2023-06-07T05:14:32.213Z,206.02
2023-06-07T05:15:32.225Z,208.50
2023-06-07T05:16:32.326Z,208.40
2023-06-07T05:17:32.279Z,206.62
2023-06-07T05:18:32.255Z,206.54
2023-06-07T05:19:32.309Z,208.79
2023-06-07T05:20:32.350Z,205.48
2023-06-07T05:21:32.427Z,204.74
2023-06-07T05:22:32.462Z,203.78
2023-06-07T05:23:32.478Z,203.08
2023-06-07T05:24:32.532Z,209.24
2023-06-07T05:25:32.638Z,210.43
2023-06-07T05:26:33.036Z,210.15
2023-06-07T05:27:32.693Z,211.05
2023-06-07T05:28:32.750Z,206.47
2023-06-07T05:29:32.814Z,206.89
2023-06-07T05:30:32.851Z,208.25
2023-06-07T05:31:32.978Z,212.18
2023-06-07T05:32:33.010Z,224.28
2023-06-07T05:33:33.032Z,235.20
2023-06-07T05:34:33.097Z,242.71
2023-06-07T05:35:33.167Z,246.75
2023-06-07T05:36:33.201Z,250.08
2023-06-07T05:37:33.239Z,250.33
2023-06-07T05:38:33.382Z,249.41
2023-06-07T05:39:33.326Z,250.00
2023-06-07T05:40:33.374Z,249.86
2023-06-07T05:41:33.511Z,250.16
2023-06-07T05:42:33.451Z,249.26
2023-06-07T05:43:33.483Z,250.00
2023-06-07T05:44:33.497Z,249.88
2023-06-07T05:45:33.527Z,249.30
2023-06-07T05:46:33.580Z,249.80
2023-06-07T05:47:33.609Z,250.00
2023-06-07T05:48:33.617Z,250.00
2023-06-07T05:49:33.614Z,249.45
2023-06-07T05:50:33.654Z,249.40
2023-06-07T05:51:33.699Z,249.85
2023-06-07T05:52:33.674Z,250.00
2023-06-07T05:53:33.694Z,249.88
2023-06-07T05:54:33.715Z,249.19
2023-06-07T05:55:33.755Z,250.00
2023-06-07T05:56:33.746Z,249.57
2023-06-07T05:57:33.783Z,249.20
2023-06-07T05:58:33.757Z,249.86
2023-06-07T05:59:33.775Z,250.00
2023-06-07T06:00:33.805Z,248.93
2023-06-07T06:01:33.766Z,248.76
2023-06-07T06:02:33.930Z,249.62
2023-06-07T06:03:33.832Z,250.00
2023-06-07T06:04:33.901Z,249.17
2023-06-07T06:05:33.795Z,248.94
2023-06-07T06:06:33.807Z,249.26
2023-06-07T06:07:33.802Z,249.45
2023-06-07T06:08:33.780Z,249.82
2023-06-07T06:09:33.791Z,249.92
2023-06-07T06:10:35.798Z,249.47
2023-06-07T06:11:33.909Z,249.20
2023-06-07T06:12:33.948Z,250.00
2023-06-07T06:13:33.937Z,249.69
2023-06-07T06:14:34.001Z,249.98
2023-06-07T06:15:34.000Z,249.14
2023-06-07T06:16:34.052Z,248.52
2023-06-07T06:17:34.078Z,249.58
2023-06-07T06:18:34.138Z,249.93
2023-06-07T06:19:34.202Z,248.49
2023-06-07T06:20:34.251Z,248.53
2023-06-07T06:21:34.474Z,249.78
2023-06-07T06:22:34.376Z,249.71
2023-06-07T06:23:34.446Z,249.24
2023-06-07T06:24:34.493Z,248.88
2023-06-07T06:25:34.547Z,249.39
2023-06-07T06:26:34.988Z,248.81
2023-06-07T06:27:34.661Z,248.18
2023-06-07T06:28:34.711Z,248.29
2023-06-07T06:29:34.737Z,246.94
2023-06-07T06:30:34.792Z,246.99
2023-06-07T06:31:35.101Z,241.53
2023-06-07T06:32:34.896Z,235.24
2023-06-07T06:33:34.939Z,230.63
2023-06-07T06:34:34.981Z,227.28
2023-06-07T06:35:35.052Z,221.11
2023-06-07T06:36:35.469Z,216.68
2023-06-07T06:37:35.169Z,211.46
2023-06-07T06:38:35.200Z,218.16
2023-06-07T06:39:35.238Z,220.93
2023-06-07T06:40:35.305Z,221.96
2023-06-07T06:41:35.400Z,218.98
2023-06-07T06:42:35.437Z,221.11
2023-06-07T06:43:35.453Z,221.06
2023-06-07T06:44:35.522Z,221.42
2023-06-07T06:45:35.544Z,223.47
2023-06-07T06:46:36.064Z,223.61
2023-06-07T06:47:35.674Z,223.38
2023-06-07T06:48:35.721Z,223.78
2023-06-07T06:49:35.846Z,224.14
2023-06-07T06:50:36.008Z,225.25
2023-06-07T06:51:35.988Z,224.66
2023-06-07T06:52:35.815Z,223.51
2023-06-07T06:53:35.843Z,222.74
2023-06-07T06:54:35.851Z,225.87
2023-06-07T06:55:35.876Z,227.61
2023-06-07T06:56:35.988Z,228.94
2023-06-07T06:57:35.952Z,230.27
2023-06-07T06:58:36.012Z,230.11
2023-06-07T06:59:35.946Z,230.33
2023-06-07T07:00:35.965Z,231.48
2023-06-07T07:01:36.531Z,229.44
2023-06-07T07:02:35.992Z,228.18
2023-06-07T07:03:36.043Z,229.55
2023-06-07T07:04:36.127Z,229.64
2023-06-07T07:05:36.011Z,230.72
2023-06-07T07:06:36.097Z,233.17
2023-06-07T07:07:36.024Z,231.93
2023-06-07T07:08:36.029Z,230.46
2023-06-07T07:09:36.009Z,231.58
2023-06-07T07:10:36.013Z,232.47
2023-06-07T07:11:36.050Z,235.20
2023-06-07T07:12:36.107Z,235.47
2023-06-07T07:13:36.172Z,235.48
2023-06-07T07:14:36.285Z,237.76
2023-06-07T07:15:36.257Z,237.51
2023-06-07T07:16:38.834Z,234.85
2023-06-07T07:17:36.304Z,235.58
2023-06-07T07:18:36.274Z,235.66
2023-06-07T07:19:36.275Z,233.97
2023-06-07T07:20:36.236Z,234.67
2023-06-07T07:21:36.600Z,234.04
2023-06-07T07:22:36.258Z,233.37
2023-06-07T07:23:36.325Z,231.22
2023-06-07T07:24:37.261Z,223.57
2023-06-07T07:25:36.235Z,202.83
2023-06-07T07:26:36.532Z,188.71
2023-06-07T07:27:36.201Z,174.73
2023-06-07T07:28:36.213Z,163.26
2023-06-07T07:29:36.191Z,148.40
2023-06-07T07:30:36.181Z,139.43
2023-06-07T07:31:36.512Z,136.15
2023-06-07T07:32:36.225Z,141.73
2023-06-07T07:33:36.155Z,134.42
2023-06-07T07:34:36.512Z,115.63
2023-06-07T07:35:36.499Z,100.07
2023-06-07T07:36:36.154Z,89.74
2023-06-07T07:37:36.148Z,82.89
2023-06-07T07:38:36.127Z,76.28
2023-06-07T07:39:36.122Z,74.18
2023-06-07T07:40:36.131Z,76.11
2023-06-07T07:41:36.180Z,68.06
2023-06-07T07:42:36.203Z,69.87
2023-06-07T07:43:38.099Z,71.17
2023-06-07T07:44:36.298Z,57.48
2023-06-07T07:45:36.523Z,40.24
2023-06-07T07:46:36.532Z,24.06
2023-06-07T07:47:36.474Z,25.81
2023-06-07T07:48:36.445Z,26.94
2023-06-07T07:49:36.738Z,34.62
2023-06-07T07:50:36.530Z,25.55
2023-06-07T07:51:36.566Z,18.34
2023-06-07T07:52:36.603Z,15.02
2023-06-07T07:53:36.654Z,18.51
2023-06-07T07:54:36.688Z,27.39
2023-06-07T07:55:36.724Z,42.52
2023-06-07T07:56:36.778Z,45.33
2023-06-07T07:57:36.799Z,49.90
2023-06-07T07:58:36.834Z,52.22
2023-06-07T07:59:36.896Z,55.40
2023-06-07T08:00:36.916Z,46.97
2023-06-07T08:01:37.019Z,46.77
2023-06-07T08:02:37.195Z,50.64
2023-06-07T08:03:37.362Z,49.23
2023-06-07T08:04:37.154Z,47.22
2023-06-07T08:05:37.164Z,46.96
2023-06-07T08:06:37.230Z,48.42
2023-06-07T08:07:37.285Z,46.04
2023-06-07T08:08:37.322Z,49.88
2023-06-07T08:09:37.430Z,55.40
2023-06-07T08:10:37.427Z,57.92
2023-06-07T08:11:37.500Z,63.12
2023-06-07T08:12:37.552Z,53.23
2023-06-07T08:13:37.595Z,39.39
2023-06-07T08:14:37.638Z,38.96
2023-06-07T08:15:37.678Z,41.52
2023-06-07T08:16:38.056Z,31.68
2023-06-07T08:17:37.767Z,34.06
2023-06-07T08:18:37.850Z,33.85
2023-06-07T08:19:37.858Z,30.91
2023-06-07T08:20:37.887Z,24.38
2023-06-07T08:21:38.046Z,13.94
2023-06-07T08:22:37.961Z,10.83
2023-06-07T08:23:38.121Z,10.72
2023-06-07T08:24:38.064Z,11.13
2023-06-07T08:25:38.086Z,9.26
2023-06-07T08:26:38.104Z,11.21
2023-06-07T08:27:38.157Z,18.41
2023-06-07T08:28:38.216Z,19.47
2023-06-07T08:29:38.261Z,25.51
2023-06-07T08:30:38.264Z,33.09
2023-06-07T08:31:38.330Z,30.09
2023-06-07T08:32:38.369Z,25.80
2023-06-07T08:33:38.359Z,29.03
2023-06-07T08:34:38.403Z,36.67
2023-06-07T08:35:38.445Z,52.37
2023-06-07T08:36:38.537Z,56.20
2023-06-07T08:37:38.515Z,46.66
2023-06-07T08:38:39.036Z,42.98
2023-06-07T08:39:38.598Z,52.24
2023-06-07T08:40:38.668Z,63.79
2023-06-07T08:41:39.043Z,82.90
2023-06-07T08:42:38.684Z,96.17
2023-06-07T08:43:38.755Z,105.97
2023-06-07T08:44:38.730Z,111.47
2023-06-07T08:45:40.578Z,115.90
2023-06-07T08:46:38.834Z,121.93
2023-06-07T08:47:38.756Z,125.19
2023-06-07T08:48:38.762Z,131.89
2023-06-07T08:49:38.753Z,138.78
2023-06-07T08:50:38.716Z,143.66
2023-06-07T08:51:38.710Z,147.11
2023-06-07T08:52:38.800Z,151.96
2023-06-07T08:53:39.069Z,156.29
2023-06-07T08:54:38.714Z,159.15
2023-06-07T08:55:38.722Z,162.62
2023-06-07T08:56:39.079Z,166.51
2023-06-07T08:57:38.678Z,168.76
2023-06-07T08:58:38.674Z,171.09
2023-06-07T08:59:38.736Z,174.39
2023-06-07T09:00:38.697Z,177.51
2023-06-07T09:01:39.051Z,180.03
2023-06-07T09:02:38.701Z,182.62
2023-06-07T09:03:38.665Z,183.08
2023-06-07T09:04:38.651Z,185.21
2023-06-07T09:05:38.624Z,187.92
2023-06-07T09:06:38.629Z,189.84
2023-06-07T09:07:38.612Z,192.16
2023-06-07T09:08:38.636Z,193.28
2023-06-07T09:09:38.614Z,195.45
2023-06-07T09:10:38.600Z,196.20
2023-06-07T09:11:38.570Z,197.71
2023-06-07T09:12:38.579Z,199.13
2023-06-07T09:13:38.610Z,199.95
2023-06-07T09:14:38.572Z,200.95
2023-06-07T09:15:38.548Z,201.21
2023-06-07T09:16:38.616Z,201.72
2023-06-07T09:17:38.706Z,202.71
2023-06-07T09:18:38.561Z,203.60
2023-06-07T09:19:38.533Z,205.63
2023-06-07T09:20:38.503Z,206.86
2023-06-07T09:21:38.522Z,207.26
2023-06-07T09:22:38.488Z,208.32
2023-06-07T09:23:38.558Z,211.07
2023-06-07T09:24:38.495Z,211.88
2023-06-07T09:25:38.491Z,210.20
2023-06-07T09:26:38.575Z,207.07
2023-06-07T09:27:38.542Z,199.95
2023-06-07T09:28:38.711Z,184.82
2023-06-07T09:29:38.687Z,180.76
2023-06-07T09:30:38.642Z,170.75
2023-06-07T09:31:39.313Z,149.93
2023-06-07T09:33:38.767Z,121.22
2023-06-07T09:34:38.792Z,115.51
2023-06-07T09:35:38.916Z,108.31
2023-06-07T09:36:38.878Z,98.62
2023-06-07T09:37:38.964Z,91.73
2023-06-07T09:38:39.002Z,83.81
2023-06-07T09:39:38.995Z,89.51
2023-06-07T09:40:39.015Z,94.67
2023-06-07T09:41:39.134Z,80.63
2023-06-07T09:42:39.101Z,83.63
2023-06-07T09:43:39.218Z,73.02
2023-06-07T09:44:39.207Z,67.24
2023-06-07T09:45:39.384Z,59.01
2023-06-07T09:46:39.304Z,60.98
2023-06-07T09:47:39.337Z,66.37
2023-06-07T09:48:39.547Z,70.02
2023-06-07T09:49:39.398Z,70.25
2023-06-07T09:50:39.432Z,61.87
2023-06-07T09:51:39.538Z,64.39
2023-06-07T09:52:39.525Z,66.25
2023-06-07T09:53:39.576Z,78.39
2023-06-07T09:54:39.584Z,70.58
2023-06-07T09:55:39.669Z,69.74
2023-06-07T09:56:39.607Z,73.43
2023-06-07T09:57:39.676Z,66.81
2023-06-07T09:58:39.721Z,69.00
2023-06-07T09:59:39.836Z,70.42
2023-06-07T10:00:39.783Z,65.49
2023-06-07T10:01:40.331Z,57.00
2023-06-07T10:02:39.849Z,49.54
2023-06-07T10:03:39.912Z,44.27
2023-06-07T10:04:39.968Z,40.20
2023-06-07T10:05:39.871Z,42.88
2023-06-07T10:06:39.927Z,45.26
2023-06-07T10:07:40.033Z,43.06
2023-06-07T10:08:39.963Z,45.31
2023-06-07T10:09:40.018Z,47.21
2023-06-07T10:10:40.036Z,48.60
2023-06-07T10:11:40.086Z,60.53
2023-06-07T10:12:40.157Z,43.77
2023-06-07T10:13:40.126Z,33.36
2023-06-07T10:14:40.139Z,35.76
2023-06-07T10:15:40.205Z,39.00
2023-06-07T10:16:40.617Z,33.87
2023-06-07T10:17:40.263Z,32.64
2023-06-07T10:18:40.257Z,30.54
2023-06-07T10:19:40.334Z,25.59
2023-06-07T10:20:40.328Z,26.25
2023-06-07T10:21:40.385Z,25.58
2023-06-07T10:22:40.386Z,20.47
2023-06-07T10:23:40.508Z,9.52
2023-06-07T10:24:40.434Z,0.00
2023-06-07T10:25:40.458Z,0.62
2023-06-07T10:26:40.603Z,11.02
2023-06-07T10:27:40.558Z,13.44
2023-06-07T10:28:40.616Z,29.04
2023-06-07T10:29:40.599Z,24.17
2023-06-07T10:30:40.626Z,25.00
2023-06-07T10:31:41.221Z,27.55
2023-06-07T10:32:40.740Z,30.34
2023-06-07T10:33:40.725Z,26.77
2023-06-07T10:34:40.744Z,27.23
2023-06-07T10:35:40.803Z,23.89
2023-06-07T10:36:40.828Z,23.29
2023-06-07T10:37:40.868Z,22.87
2023-06-07T10:38:40.933Z,22.04
2023-06-07T10:39:40.992Z,27.06
2023-06-07T10:40:41.025Z,37.35
2023-06-07T10:41:41.109Z,36.06
2023-06-07T10:42:41.147Z,36.57
2023-06-07T10:43:41.122Z,35.25
2023-06-07T10:44:41.157Z,38.05
2023-06-07T10:45:41.201Z,42.86
2023-06-07T10:46:41.309Z,32.75
2023-06-07T10:47:41.408Z,27.51
2023-06-07T10:48:41.313Z,29.02
2023-06-07T10:49:41.751Z,35.95
2023-06-07T10:50:41.410Z,52.46
2023-06-07T10:51:41.452Z,57.59
2023-06-07T10:52:41.518Z,64.36
2023-06-07T10:53:41.525Z,64.74
2023-06-07T10:54:41.574Z,70.87
2023-06-07T10:55:41.687Z,72.82
2023-06-07T10:56:41.673Z,72.03
2023-06-07T10:57:41.688Z,75.56
2023-06-07T10:58:41.769Z,71.41
2023-06-07T10:59:41.837Z,76.06
2023-06-07T11:00:41.833Z,82.49
2023-06-07T11:01:41.931Z,75.06
2023-06-07T11:02:42.034Z,79.12
2023-06-07T11:03:42.137Z,81.24
2023-06-07T11:04:42.473Z,83.94
2023-06-07T11:05:42.051Z,76.83
2023-06-07T11:06:42.080Z,74.45
2023-06-07T11:07:42.078Z,66.82
2023-06-07T11:08:42.139Z,64.77
2023-06-07T11:09:42.240Z,59.06
2023-06-07T11:10:42.185Z,60.93
2023-06-07T11:11:42.236Z,59.13
2023-06-07T11:12:42.629Z,49.68
2023-06-07T11:13:42.338Z,47.65
2023-06-07T11:14:42.359Z,48.70
2023-06-07T11:15:42.477Z,44.51
2023-06-07T11:16:42.527Z,44.29
2023-06-07T11:17:42.556Z,40.10
2023-06-07T11:18:42.571Z,37.21
2023-06-07T11:19:42.640Z,45.16
2023-06-07T11:20:42.710Z,46.85
2023-06-07T11:21:42.764Z,43.50
2023-06-07T11:22:42.796Z,39.16
2023-06-07T11:23:42.875Z,45.17
2023-06-07T11:24:45.840Z,35.66
2023-06-07T11:25:42.927Z,33.89
2023-06-07T11:26:42.912Z,30.10
2023-06-07T11:27:42.918Z,25.55
2023-06-07T11:28:42.903Z,28.15
2023-06-07T11:29:42.998Z,29.42
2023-06-07T11:30:42.889Z,25.64
2023-06-07T11:31:42.904Z,25.00
2023-06-07T11:32:42.893Z,28.74
2023-06-07T11:33:42.882Z,25.31
2023-06-07T11:34:42.860Z,25.00
2023-06-07T11:35:42.890Z,28.58
2023-06-07T11:36:42.865Z,32.45
2023-06-07T11:37:42.911Z,33.34
2023-06-07T11:38:42.895Z,40.28
2023-06-07T11:39:42.827Z,45.46
2023-06-07T11:40:42.814Z,47.44
2023-06-07T11:41:42.839Z,49.11
2023-06-07T11:42:42.813Z,31.58
2023-06-07T11:43:42.794Z,23.17
2023-06-07T11:44:42.820Z,27.96
2023-06-07T11:45:42.766Z,19.62
2023-06-07T11:46:42.864Z,15.72
2023-06-07T11:47:42.900Z,22.14
2023-06-07T11:48:42.863Z,28.98
2023-06-07T11:49:42.770Z,30.98
2023-06-07T11:50:42.732Z,45.75
2023-06-07T11:51:42.776Z,65.44
2023-06-07T11:52:42.752Z,77.19
2023-06-07T11:53:42.750Z,88.13
2023-06-07T11:54:42.738Z,98.62
2023-06-07T11:55:42.711Z,108.77
2023-06-07T11:56:42.702Z,118.21
2023-06-07T11:57:42.693Z,123.81
2023-06-07T11:58:42.677Z,131.35
2023-06-07T11:59:42.681Z,136.39
2023-06-07T12:00:42.746Z,137.23
2023-06-07T12:01:42.674Z,144.01
2023-06-07T12:02:42.724Z,149.57
2023-06-07T12:03:45.221Z,153.34
2023-06-07T12:04:42.726Z,148.92
2023-06-07T12:05:42.708Z,152.66
2023-06-07T12:06:42.704Z,156.26
2023-06-07T12:07:42.683Z,153.85
2023-06-07T12:08:42.690Z,153.63
2023-06-07T12:09:42.668Z,156.78
2023-06-07T12:10:42.671Z,157.88
2023-06-07T12:11:42.661Z,150.18
2023-06-07T12:12:42.651Z,151.11
2023-06-07T12:13:42.672Z,148.70
2023-06-07T12:14:42.628Z,151.86
2023-06-07T12:15:42.727Z,153.60
2023-06-07T12:16:42.644Z,146.72
2023-06-07T12:17:42.669Z,145.55
2023-06-07T12:18:42.607Z,149.64
2023-06-07T12:19:42.597Z,149.71
2023-06-07T12:20:42.655Z,145.87
2023-06-07T12:21:42.601Z,143.82
2023-06-07T12:22:42.580Z,140.97
2023-06-07T12:23:42.583Z,143.11
2023-06-07T12:24:42.568Z,148.04
2023-06-07T12:25:42.746Z,145.54
2023-06-07T12:26:42.575Z,139.84
2023-06-07T12:27:42.550Z,137.00
2023-06-07T12:28:42.537Z,138.81
2023-06-07T12:29:42.522Z,136.72
2023-06-07T12:30:42.528Z,134.77
2023-06-07T12:31:42.574Z,135.60
2023-06-07T12:32:42.555Z,135.33
2023-06-07T12:33:42.525Z,135.13
2023-06-07T12:34:42.502Z,131.94
2023-06-07T12:35:42.477Z,133.23
2023-06-07T12:36:42.484Z,132.06